Time;durP1;ratioP1;P1;durP2;ratioP2;P2;SDS_P1;SDS_P2;PMS_P1;PMS_P2;Temp;Humidity;BMP_temperature;BMP_pressure;BME280_temperature;BME280_humidity;BME280_pressure;Samples;Min_cycle;Max_cycle;Signal;HPM_P1;HPM_P2
2021/07/31 00:01:46;;;;;;;6.90;4.82;;;;;;;;;;4996018;28;20042;-81
2021/07/31 00:04:13;;;;;;;5.85;4.57;;;;;;;;;;4977473;28;20055;-82
2021/07/31 00:06:39;;;;;;;9.02;4.70;;;;;;;;;;4994452;28;20050;-81
2021/07/31 00:09:06;;;;;;;8.38;5.38;;;;;;;;;;4998056;28;20042;-81
2021/07/31 00:11:32;;;;;;;6.97;4.47;;;;;;;;;;4982843;28;20519;-81
2021/07/31 00:14:00;;;;;;;8.75;4.75;;;;;;;;;;4996849;28;20510;-81
2021/07/31 00:16:27;;;;;;;6.22;4.40;;;;;;;;;;4997105;28;20100;-82
2021/07/31 00:18:53;;;;;;;5.82;3.67;;;;;;;;;;4984332;28;20048;-81
2021/07/31 00:21:20;;;;;;;5.93;3.88;;;;;;;;;;4996834;28;20068;-80
2021/07/31 00:23:46;;;;;;;6.90;4.30;;;;;;;;;;4983485;28;20047;-82
2021/07/31 00:26:13;;;;;;;8.15;4.13;;;;;;;;;;4988275;28;20043;-81
2021/07/31 00:28:39;;;;;;;7.55;4.45;;;;;;;;;;4994089;28;20153;-81
2021/07/31 00:31:07;;;;;;;6.85;4.30;;;;;;;;;;4996060;28;20050;-81
2021/07/31 00:33:33;;;;;;;6.75;4.07;;;;;;;;;;4996375;28;20042;-80
2021/07/31 00:36:00;;;;;;;5.93;4.13;;;;;;;;;;4987804;28;20049;-81
2021/07/31 00:38:26;;;;;;;6.78;3.88;;;;;;;;;;4984785;28;20054;-80
2021/07/31 00:40:53;;;;;;;9.23;4.30;;;;;;;;;;4992837;28;20042;-81
2021/07/31 00:43:19;;;;;;;6.28;4.45;;;;;;;;;;4995968;28;20052;-81
2021/07/31 00:45:46;;;;;;;6.88;4.90;;;;;;;;;;4996158;28;20057;-80
2021/07/31 00:48:14;;;;;;;5.40;3.88;;;;;;;;;;4987624;28;20046;-81
2021/07/31 00:50:40;;;;;;;6.68;3.90;;;;;;;;;;4978192;28;20055;-81
2021/07/31 00:53:07;;;;;;;6.85;4.32;;;;;;;;;;4978468;28;20069;-83
2021/07/31 00:55:35;;;;;;;8.30;4.28;;;;;;;;;;4978637;28;20051;-83
2021/07/31 00:58:02;;;;;;;5.63;4.20;;;;;;;;;;4981251;28;20098;-80
2021/07/31 01:00:29;;;;;;;7.53;5.18;;;;;;;;;;4987995;28;20051;-81
2021/07/31 01:02:55;;;;;;;7.25;4.75;;;;;;;;;;4986235;28;20066;-82
2021/07/31 01:05:23;;;;;;;7.60;4.43;;;;;;;;;;4998473;28;20045;-82
2021/07/31 01:07:51;;;;;;;7.05;4.30;;;;;;;;;;4992107;28;20040;-82
2021/07/31 01:10:17;;;;;;;7.88;4.85;;;;;;;;;;4996926;28;20042;-82
2021/07/31 01:12:45;;;;;;;9.95;5.32;;;;;;;;;;4999826;28;20065;-83
2021/07/31 01:15:12;;;;;;;6.05;4.20;;;;;;;;;;4994260;28;20054;-82
2021/07/31 01:17:38;;;;;;;8.88;4.90;;;;;;;;;;4992436;28;20042;-81
2021/07/31 01:20:06;;;;;;;6.50;4.65;;;;;;;;;;4994631;28;20053;-81
2021/07/31 01:22:34;;;;;;;11.20;5.47;;;;;;;;;;4992931;28;20407;-81
2021/07/31 01:25:01;;;;;;;6.78;4.68;;;;;;;;;;4981704;28;20054;-80
2021/07/31 01:27:27;;;;;;;8.82;4.78;;;;;;;;;;4981462;28;20419;-80
2021/07/31 01:29:54;;;;;;;6.38;4.45;;;;;;;;;;4989247;28;20047;-82
2021/07/31 01:32:20;;;;;;;7.22;4.47;;;;;;;;;;4980682;28;20056;-82
2021/07/31 01:34:47;;;;;;;8.00;4.60;;;;;;;;;;4994137;28;20053;-82
2021/07/31 01:37:13;;;;;;;7.95;5.28;;;;;;;;;;4994667;28;20049;-81
2021/07/31 01:39:42;;;;;;;6.82;4.72;;;;;;;;;;4986646;28;20073;-82
2021/07/31 01:42:08;;;;;;;7.75;5.03;;;;;;;;;;4995207;28;20057;-81
2021/07/31 01:44:35;;;;;;;7.60;5.20;;;;;;;;;;4996225;28;20684;-81
2021/07/31 01:47:01;;;;;;;7.10;4.55;;;;;;;;;;4996113;28;20042;-81
2021/07/31 01:49:28;;;;;;;8.02;4.55;;;;;;;;;;4995820;28;20057;-81
2021/07/31 01:51:55;;;;;;;7.10;5.13;;;;;;;;;;4983654;28;20058;-81
2021/07/31 01:54:21;;;;;;;8.07;5.03;;;;;;;;;;4978055;28;20509;-81
2021/07/31 01:56:49;;;;;;;6.43;4.93;;;;;;;;;;4995483;28;20050;-81
2021/07/31 01:59:17;;;;;;;7.25;4.47;;;;;;;;;;4996057;28;20128;-81
2021/07/31 02:01:43;;;;;;;8.73;5.03;;;;;;;;;;4992513;28;20050;-81
2021/07/31 02:04:09;;;;;;;6.40;4.53;;;;;;;;;;4996643;28;20483;-81
2021/07/31 02:06:36;;;;;;;7.97;5.35;;;;;;;;;;4996075;28;20047;-80
2021/07/31 02:09:03;;;;;;;8.82;4.80;;;;;;;;;;4995414;28;20051;-81
2021/07/31 02:11:29;;;;;;;6.97;4.30;;;;;;;;;;4983832;28;20059;-81
2021/07/31 02:13:57;;;;;;;10.05;5.03;;;;;;;;;;4988695;28;20054;-81
2021/07/31 02:16:24;;;;;;;7.18;4.40;;;;;;;;;;4983597;28;20046;-82
2021/07/31 02:18:51;;;;;;;9.57;5.35;;;;;;;;;;4986651;28;20074;-81
2021/07/31 02:21:18;;;;;;;7.75;4.88;;;;;;;;;;4996988;28;20096;-81
2021/07/31 02:23:45;;;;;;;7.32;5.13;;;;;;;;;;5000031;28;20053;-81
2021/07/31 02:26:12;;;;;;;7.72;5.20;;;;;;;;;;5000017;28;20073;-81
2021/07/31 02:28:38;;;;;;;7.50;4.85;;;;;;;;;;4999333;28;20046;-81
2021/07/31 02:31:07;;;;;;;9.93;5.22;;;;;;;;;;4999625;28;20053;-81
2021/07/31 02:33:33;;;;;;;6.47;4.80;;;;;;;;;;4998640;28;20046;-81
2021/07/31 02:36:02;;;;;;;6.55;4.80;;;;;;;;;;4997230;28;20043;-82
2021/07/31 02:38:29;;;;;;;7.90;5.20;;;;;;;;;;4988576;28;20510;-81
2021/07/31 02:40:55;;;;;;;6.55;4.72;;;;;;;;;;4999168;28;20054;-81
2021/07/31 02:43:22;;;;;;;9.10;5.15;;;;;;;;;;4999149;28;20065;-81
2021/07/31 02:45:48;;;;;;;7.75;4.68;;;;;;;;;;4984940;28;20069;-82
2021/07/31 02:48:16;;;;;;;7.00;4.93;;;;;;;;;;4992487;28;20050;-81
2021/07/31 02:50:42;;;;;;;6.78;4.50;;;;;;;;;;4989306;28;20046;-81
2021/07/31 02:53:09;;;;;;;6.88;4.82;;;;;;;;;;4997103;28;20042;-81
2021/07/31 02:55:35;;;;;;;7.65;4.82;;;;;;;;;;4990059;28;20043;-81
2021/07/31 02:58:02;;;;;;;9.57;4.78;;;;;;;;;;4997161;28;20034;-81
2021/07/31 03:00:28;;;;;;;7.18;5.47;;;;;;;;;;4992760;28;20377;-81
2021/07/31 03:02:54;;;;;;;7.35;4.50;;;;;;;;;;4989367;28;20395;-81
2021/07/31 03:05:22;;;;;;;6.63;4.95;;;;;;;;;;4997366;28;20057;-83
2021/07/31 03:07:49;;;;;;;6.53;4.78;;;;;;;;;;4991357;28;20411;-81
2021/07/31 03:10:16;;;;;;;6.13;4.47;;;;;;;;;;4993683;28;20217;-82
2021/07/31 03:12:43;;;;;;;5.88;4.60;;;;;;;;;;4991166;28;20050;-82
2021/07/31 03:15:10;;;;;;;7.05;4.15;;;;;;;;;;5000462;28;20038;-82
2021/07/31 03:17:37;;;;;;;8.00;4.70;;;;;;;;;;4996939;28;20499;-81
2021/07/31 03:20:04;;;;;;;8.73;4.78;;;;;;;;;;4993673;28;20497;-81
2021/07/31 03:22:31;;;;;;;7.90;4.45;;;;;;;;;;4992881;28;20046;-81
2021/07/31 03:24:59;;;;;;;6.47;4.78;;;;;;;;;;5001117;28;20049;-81
2021/07/31 03:27:26;;;;;;;7.45;4.85;;;;;;;;;;4990717;28;20047;-83
2021/07/31 03:29:52;;;;;;;7.07;4.82;;;;;;;;;;4999396;28;20534;-84
2021/07/31 03:32:19;;;;;;;7.75;4.85;;;;;;;;;;5000136;28;20503;-81
2021/07/31 03:34:45;;;;;;;5.90;4.40;;;;;;;;;;5003237;28;20423;-83
2021/07/31 03:37:11;;;;;;;7.05;4.57;;;;;;;;;;4990021;28;20046;-81
2021/07/31 03:39:39;;;;;;;8.63;4.82;;;;;;;;;;4987844;28;20049;-80
2021/07/31 03:42:06;;;;;;;9.25;4.80;;;;;;;;;;4992530;28;20050;-82
2021/07/31 03:44:32;;;;;;;9.05;5.13;;;;;;;;;;4995470;28;20053;-82
2021/07/31 03:46:59;;;;;;;7.18;5.10;;;;;;;;;;4994773;28;20050;-81
2021/07/31 03:49:25;;;;;;;6.55;5.03;;;;;;;;;;4995784;28;20131;-82
2021/07/31 03:51:53;;;;;;;8.73;4.95;;;;;;;;;;4988423;28;20046;-81
2021/07/31 03:54:20;;;;;;;9.05;5.47;;;;;;;;;;4983479;28;20057;-81
2021/07/31 03:56:48;;;;;;;7.60;4.93;;;;;;;;;;4992280;28;20046;-82
2021/07/31 03:59:14;;;;;;;10.35;4.82;;;;;;;;;;4988427;28;20056;-81
2021/07/31 04:01:40;;;;;;;6.55;4.13;;;;;;;;;;4990407;28;20054;-81
2021/07/31 04:04:07;;;;;;;7.57;5.30;;;;;;;;;;4993156;28;20049;-81
2021/07/31 04:06:33;;;;;;;11.13;5.28;;;;;;;;;;4990078;28;20050;-81
2021/07/31 04:09:00;;;;;;;10.45;4.40;;;;;;;;;;4986417;28;20042;-81
2021/07/31 04:11:26;;;;;;;6.65;5.03;;;;;;;;;;4990914;28;20046;-81
2021/07/31 04:13:55;;;;;;;11.13;5.55;;;;;;;;;;4996090;28;20053;-81
2021/07/31 04:16:21;;;;;;;7.30;5.03;;;;;;;;;;4996189;28;20174;-82
2021/07/31 04:18:48;;;;;;;8.57;5.55;;;;;;;;;;4991952;28;20043;-82
2021/07/31 04:21:14;;;;;;;7.25;5.07;;;;;;;;;;4987505;28;20047;-82
2021/07/31 04:23:41;;;;;;;8.13;4.97;;;;;;;;;;4979856;28;20050;-82
2021/07/31 04:26:14;;;;;;;6.22;4.63;;;;;;;;;;4996627;28;20061;-82
2021/07/31 04:28:41;;;;;;;9.05;5.22;;;;;;;;;;4995076;28;20419;-82
2021/07/31 04:31:13;;;;;;;10.02;5.70;;;;;;;;;;4987694;28;20039;-81
2021/07/31 04:33:40;;;;;;;7.88;4.95;;;;;;;;;;4998516;28;20111;-82
2021/07/31 04:36:07;;;;;;;7.28;4.35;;;;;;;;;;4995897;28;20443;-82
2021/07/31 04:38:34;;;;;;;7.07;4.90;;;;;;;;;;4989121;28;20046;-82
2021/07/31 04:41:01;;;;;;;8.27;5.00;;;;;;;;;;4989796;28;20069;-83
2021/07/31 04:43:28;;;;;;;5.90;4.30;;;;;;;;;;4996180;28;20073;-82
2021/07/31 04:45:55;;;;;;;6.63;4.07;;;;;;;;;;4989251;28;20092;-82
2021/07/31 04:48:23;;;;;;;6.25;4.63;;;;;;;;;;4983901;28;20061;-82
2021/07/31 04:50:56;;;;;;;6.93;4.63;;;;;;;;;;4990006;28;20407;-81
2021/07/31 04:53:22;;;;;;;7.15;5.00;;;;;;;;;;4983532;28;20059;-82
2021/07/31 04:55:49;;;;;;;8.43;4.57;;;;;;;;;;4993177;28;20502;-83
2021/07/31 04:58:15;;;;;;;6.22;4.55;;;;;;;;;;4989343;28;20051;-82
2021/07/31 05:00:42;;;;;;;9.40;5.38;;;;;;;;;;4989562;28;20038;-81
2021/07/31 05:03:08;;;;;;;8.88;4.97;;;;;;;;;;4981313;28;20131;-83
2021/07/31 05:05:37;;;;;;;9.30;5.18;;;;;;;;;;4995743;28;20050;-82
2021/07/31 05:08:03;;;;;;;8.63;5.32;;;;;;;;;;5000042;28;20050;-82
2021/07/31 05:10:30;;;;;;;7.97;5.38;;;;;;;;;;5000676;28;20046;-82
2021/07/31 05:12:56;;;;;;;10.93;5.20;;;;;;;;;;5000846;28;20047;-82
2021/07/31 05:15:23;;;;;;;7.53;5.30;;;;;;;;;;5000194;28;20043;-84
2021/07/31 05:17:49;;;;;;;9.02;5.65;;;;;;;;;;5000810;28;20141;-82
2021/07/31 05:20:16;;;;;;;7.70;4.82;;;;;;;;;;5000679;28;20050;-83
2021/07/31 05:22:43;;;;;;;8.90;4.82;;;;;;;;;;5000400;28;20047;-83
2021/07/31 05:25:11;;;;;;;7.32;5.25;;;;;;;;;;5000480;28;20399;-82
2021/07/31 05:27:37;;;;;;;9.25;4.53;;;;;;;;;;5001454;28;20058;-82
2021/07/31 05:30:05;;;;;;;7.18;5.03;;;;;;;;;;5001028;28;20069;-83
2021/07/31 05:32:31;;;;;;;7.60;4.90;;;;;;;;;;5000789;28;20054;-83
2021/07/31 05:34:58;;;;;;;6.65;4.70;;;;;;;;;;5015263;28;20050;-82
2021/07/31 05:37:24;;;;;;;8.15;4.72;;;;;;;;;;5000351;28;20055;-83
2021/07/31 05:39:52;;;;;;;9.48;5.07;;;;;;;;;;5002157;28;20046;-82
2021/07/31 05:42:19;;;;;;;7.85;5.10;;;;;;;;;;5001536;28;20046;-82
2021/07/31 05:44:45;;;;;;;15.70;6.97;;;;;;;;;;5002477;28;20043;-82
2021/07/31 05:47:11;;;;;;;9.45;6.10;;;;;;;;;;5002100;28;20502;-82
2021/07/31 05:49:38;;;;;;;9.05;5.82;;;;;;;;;;5002327;28;20039;-82
2021/07/31 05:52:05;;;;;;;7.47;4.82;;;;;;;;;;5002706;28;20050;-83
2021/07/31 05:54:32;;;;;;;7.93;5.35;;;;;;;;;;5005775;28;20053;-83
2021/07/31 05:56:59;;;;;;;9.90;5.65;;;;;;;;;;4987952;28;20082;-83
2021/07/31 05:59:26;;;;;;;8.60;5.72;;;;;;;;;;4985665;28;20046;-83
2021/07/31 06:01:52;;;;;;;8.95;5.95;;;;;;;;;;5004318;28;20127;-84
2021/07/31 06:04:19;;;;;;;9.30;5.22;;;;;;;;;;5003738;28;20499;-82
2021/07/31 06:06:45;;;;;;;10.15;5.03;;;;;;;;;;5003956;28;20049;-84
2021/07/31 06:09:12;;;;;;;9.35;5.10;;;;;;;;;;5004893;28;20076;-83
2021/07/31 06:11:38;;;;;;;9.65;4.97;;;;;;;;;;5000508;28;20057;-84
2021/07/31 06:14:06;;;;;;;9.27;5.32;;;;;;;;;;4999302;28;20050;-82
2021/07/31 06:16:33;;;;;;;7.90;5.00;;;;;;;;;;4998914;28;20053;-82
2021/07/31 06:18:59;;;;;;;8.20;5.90;;;;;;;;;;4999660;28;20046;-83
2021/07/31 06:21:26;;;;;;;9.45;5.22;;;;;;;;;;4998208;28;20050;-83
2021/07/31 06:23:53;;;;;;;7.25;4.93;;;;;;;;;;4998776;28;20050;-83
2021/07/31 06:26:19;;;;;;;6.80;5.05;;;;;;;;;;4998397;28;20047;-83
2021/07/31 06:28:46;;;;;;;10.02;5.65;;;;;;;;;;4979615;28;20527;-83
2021/07/31 06:31:14;;;;;;;15.63;5.28;;;;;;;;;;4980743;28;20149;-83
2021/07/31 06:33:40;;;;;;;9.32;5.45;;;;;;;;;;4987230;28;20046;-83
2021/07/31 06:36:07;;;;;;;10.45;5.18;;;;;;;;;;5000491;28;20049;-84
2021/07/31 06:38:33;;;;;;;10.38;5.38;;;;;;;;;;4999624;28;20053;-83
2021/07/31 06:41:00;;;;;;;8.43;5.47;;;;;;;;;;5000420;28;20058;-84
2021/07/31 06:43:26;;;;;;;8.13;5.63;;;;;;;;;;4999878;28;20051;-83
2021/07/31 06:45:53;;;;;;;7.95;4.07;;;;;;;;;;5000516;28;20054;-83
2021/07/31 06:48:21;;;;;;;5.20;3.85;;;;;;;;;;5001445;28;20046;-83
2021/07/31 06:50:47;;;;;;;7.93;4.60;;;;;;;;;;5001007;28;20049;-83
2021/07/31 06:53:14;;;;;;;8.73;3.67;;;;;;;;;;5000642;28;20062;-84
2021/07/31 06:55:40;;;;;;;9.02;4.82;;;;;;;;;;5000638;28;20533;-83
2021/07/31 06:58:06;;;;;;;6.72;3.70;;;;;;;;;;5000419;28;20049;-84
2021/07/31 07:00:33;;;;;;;9.65;4.05;;;;;;;;;;4999142;28;20046;-85
2021/07/31 07:02:59;;;;;;;8.05;3.65;;;;;;;;;;4998563;28;20050;-82
2021/07/31 07:05:27;;;;;;;5.70;2.92;;;;;;;;;;4998673;28;20047;-82
2021/07/31 07:07:54;;;;;;;7.63;3.03;;;;;;;;;;4998428;28;20047;-82
2021/07/31 07:10:20;;;;;;;7.40;2.60;;;;;;;;;;4998207;28;20482;-83
2021/07/31 07:12:47;;;;;;;8.38;2.85;;;;;;;;;;4998513;28;20057;-82
2021/07/31 07:15:13;;;;;;;11.48;3.30;;;;;;;;;;4998477;28;20503;-82
2021/07/31 07:17:40;;;;;;;5.95;2.40;;;;;;;;;;4998446;28;20047;-84
2021/07/31 07:20:08;;;;;;;7.43;2.88;;;;;;;;;;4998914;28;20049;-82
2021/07/31 07:22:35;;;;;;;6.07;3.67;;;;;;;;;;5010836;28;20061;-82
2021/07/31 07:25:02;;;;;;;5.53;3.53;;;;;;;;;;5000005;28;20042;-84
2021/07/31 07:27:28;;;;;;;8.15;2.38;;;;;;;;;;5002201;28;20050;-83
2021/07/31 07:29:55;;;;;;;7.82;2.58;;;;;;;;;;4996966;28;20050;-83
2021/07/31 07:32:22;;;;;;;4.82;2.20;;;;;;;;;;4997878;28;20054;-83
2021/07/31 07:34:48;;;;;;;4.50;2.05;;;;;;;;;;5000556;28;20052;-82
2021/07/31 07:37:15;;;;;;;6.10;2.58;;;;;;;;;;5002281;28;20050;-82
2021/07/31 07:39:43;;;;;;;3.15;1.65;;;;;;;;;;4999602;28;20046;-82
2021/07/31 07:42:09;;;;;;;5.00;2.40;;;;;;;;;;4999515;28;20053;-83
2021/07/31 07:44:36;;;;;;;5.85;2.10;;;;;;;;;;4999321;28;20513;-84
2021/07/31 07:47:03;;;;;;;4.88;2.00;;;;;;;;;;5000746;28;20054;-82
2021/07/31 07:49:29;;;;;;;5.47;2.33;;;;;;;;;;5002147;28;20046;-83
2021/07/31 07:51:56;;;;;;;8.32;2.13;;;;;;;;;;5000174;28;20500;-84
2021/07/31 07:54:22;;;;;;;8.13;2.30;;;;;;;;;;4986888;28;20062;-82
2021/07/31 07:56:50;;;;;;;8.50;2.58;;;;;;;;;;4992058;28;20062;-82
2021/07/31 07:59:17;;;;;;;8.43;1.88;;;;;;;;;;4992985;28;20050;-82
2021/07/31 08:01:43;;;;;;;5.57;2.33;;;;;;;;;;5000579;28;20503;-82
2021/07/31 08:04:10;;;;;;;5.78;1.85;;;;;;;;;;4993855;28;20053;-82
2021/07/31 08:06:37;;;;;;;4.97;1.98;;;;;;;;;;5000366;28;20522;-84
2021/07/31 08:09:03;;;;;;;6.25;2.42;;;;;;;;;;5002637;28;20047;-81
2021/07/31 08:11:30;;;;;;;7.20;2.28;;;;;;;;;;5002456;28;20043;-83
2021/07/31 08:13:58;;;;;;;6.38;2.25;;;;;;;;;;4989576;28;20055;-83
2021/07/31 08:16:24;;;;;;;7.63;2.30;;;;;;;;;;4983507;28;20526;-81
2021/07/31 08:18:51;;;;;;;6.50;2.00;;;;;;;;;;4984512;28;20500;-83
2021/07/31 08:21:17;;;;;;;7.28;2.53;;;;;;;;;;4995866;28;20047;-82
2021/07/31 08:23:44;;;;;;;5.28;2.50;;;;;;;;;;5001943;28;20046;-79
2021/07/31 08:26:12;;;;;;;6.70;2.63;;;;;;;;;;4995817;28;20042;-81
2021/07/31 08:28:39;;;;;;;4.10;2.40;;;;;;;;;;5002373;28;20100;-82
2021/07/31 08:31:07;;;;;;;5.00;3.10;;;;;;;;;;5000767;28;20046;-80
2021/07/31 08:33:34;;;;;;;6.47;2.58;;;;;;;;;;4998746;28;20499;-82
2021/07/31 08:36:01;;;;;;;7.60;3.35;;;;;;;;;;4984391;28;20051;-81
2021/07/31 08:38:28;;;;;;;6.82;2.47;;;;;;;;;;4984766;28;20050;-82
2021/07/31 08:40:54;;;;;;;6.50;2.95;;;;;;;;;;4996047;28;20055;-82
2021/07/31 08:43:21;;;;;;;7.50;2.75;;;;;;;;;;5005056;28;20046;-82
2021/07/31 08:45:48;;;;;;;6.85;2.45;;;;;;;;;;5004253;28;20050;-84
2021/07/31 08:48:16;;;;;;;5.55;2.30;;;;;;;;;;5005619;28;20050;-83
2021/07/31 08:50:43;;;;;;;8.50;2.65;;;;;;;;;;5005039;28;20055;-81
2021/07/31 08:53:09;;;;;;;5.40;2.28;;;;;;;;;;5005163;28;20058;-80
2021/07/31 08:55:36;;;;;;;5.50;2.58;;;;;;;;;;5005183;28;20050;-82
2021/07/31 08:58:03;;;;;;;5.65;2.60;;;;;;;;;;5004164;28;20046;-82
2021/07/31 09:00:29;;;;;;;7.70;2.80;;;;;;;;;;5003080;28;20738;-80
2021/07/31 09:02:56;;;;;;;4.65;2.50;;;;;;;;;;5005671;28;20050;-84
2021/07/31 09:05:31;;;;;;;5.38;2.45;;;;;;;;;;5004679;28;20458;-83
2021/07/31 09:08:02;;;;;;;12.43;3.15;;;;;;;;;;5002610;28;20109;-82
2021/07/31 09:10:29;;;;;;;5.90;2.97;;;;;;;;;;5004236;28;20046;-81
2021/07/31 09:12:57;;;;;;;6.88;3.05;;;;;;;;;;5001738;28;20046;-81
2021/07/31 09:15:31;;;;;;;5.72;3.17;;;;;;;;;;5001874;28;20050;-82
2021/07/31 09:18:19;;;;;;;4.93;2.63;;;;;;;;;;5001279;28;20073;-83
2021/07/31 09:20:57;;;;;;;6.15;2.70;;;;;;;;;;5001723;28;20057;-83
2021/07/31 09:23:23;;;;;;;5.40;2.53;;;;;;;;;;5000674;28;20388;-82
2021/07/31 09:26:00;;;;;;;6.25;2.95;;;;;;;;;;5001311;28;20050;-82
2021/07/31 09:28:27;;;;;;;3.65;2.60;;;;;;;;;;5001962;28;20483;-80
2021/07/31 09:30:53;;;;;;;8.00;2.78;;;;;;;;;;5002259;28;20375;-80
2021/07/31 09:33:21;;;;;;;4.70;2.50;;;;;;;;;;5001741;28;20046;-80
2021/07/31 09:35:49;;;;;;;6.70;2.83;;;;;;;;;;5001443;28;20065;-81
2021/07/31 09:38:16;;;;;;;3.83;2.50;;;;;;;;;;5001817;28;20047;-82
2021/07/31 09:40:42;;;;;;;7.30;3.53;;;;;;;;;;5002702;28;20404;-82
2021/07/31 09:43:13;;;;;;;5.60;2.88;;;;;;;;;;5002291;28;20368;-82
2021/07/31 09:45:40;;;;;;;5.68;2.53;;;;;;;;;;5003308;28;20133;-83
2021/07/31 09:48:08;;;;;;;6.70;2.72;;;;;;;;;;5002769;28;20053;-83
2021/07/31 09:50:37;;;;;;;6.38;2.67;;;;;;;;;;5003263;28;20050;-81
2021/07/31 09:53:12;;;;;;;3.75;2.08;;;;;;;;;;5002821;28;20042;-80
2021/07/31 09:55:39;;;;;;;;;;;;;;;;;;5004783;28;20102;-80
2021/07/31 09:58:07;;;;;;;5.53;2.10;;;;;;;;;;5005458;28;19922;-81
2021/07/31 10:00:34;;;;;;;6.25;2.70;;;;;;;;;;5004850;28;20042;-82
2021/07/31 10:03:04;;;;;;;5.18;2.80;;;;;;;;;;5004403;28;20042;-80
2021/07/31 10:05:30;;;;;;;6.78;2.67;;;;;;;;;;5004730;28;20114;-82
2021/07/31 10:07:57;;;;;;;3.60;2.33;;;;;;;;;;5003491;28;20069;-83
2021/07/31 10:10:25;;;;;;;3.80;2.53;;;;;;;;;;5004254;28;20047;-82
2021/07/31 10:12:52;;;;;;;9.18;2.72;;;;;;;;;;5001626;28;20046;-80
2021/07/31 10:15:18;;;;;;;6.43;2.70;;;;;;;;;;4999416;28;20062;-80
2021/07/31 10:17:45;;;;;;;4.95;2.67;;;;;;;;;;4997911;28;20042;-82
2021/07/31 10:20:23;;;;;;;4.13;2.50;;;;;;;;;;4997074;28;20165;-82
2021/07/31 10:22:49;;;;;;;6.32;2.65;;;;;;;;;;4998720;28;20047;-83
2021/07/31 10:25:16;;;;;;;4.30;2.60;;;;;;;;;;4995778;28;20054;-82
2021/07/31 10:27:45;;;;;;;4.65;3.05;;;;;;;;;;4992644;28;20682;-82
2021/07/31 10:30:29;;;;;;;5.95;2.97;;;;;;;;;;4992575;28;20077;-82
2021/07/31 10:32:56;;;;;;;5.10;2.53;;;;;;;;;;4994215;28;20038;-81
2021/07/31 10:35:31;;;;;;;5.97;2.40;;;;;;;;;;5002504;28;20050;-82
2021/07/31 10:37:58;;;;;;;3.20;2.28;;;;;;;;;;5006317;28;20097;-82
2021/07/31 10:40:47;;;;;;;4.80;2.30;;;;;;;;;;5004136;28;20506;-81
2021/07/31 10:43:15;;;;;;;4.15;2.33;;;;;;;;;;5000193;28;20062;-80
2021/07/31 10:45:42;;;;;;;4.80;2.72;;;;;;;;;;5003054;28;20070;-80
2021/07/31 10:48:23;;;;;;;6.80;2.78;;;;;;;;;;4985252;28;20058;-81
2021/07/31 10:50:50;;;;;;;4.75;2.45;;;;;;;;;;4994902;28;20043;-81
2021/07/31 10:53:19;;;;;;;3.08;2.13;;;;;;;;;;4997013;28;20046;-81
2021/07/31 10:56:02;;;;;;;3.63;2.33;;;;;;;;;;5002946;28;20104;-83
2021/07/31 10:58:32;;;;;;;3.70;2.70;;;;;;;;;;4999849;28;20381;-81
2021/07/31 11:01:22;;;;;;;5.72;2.47;;;;;;;;;;4999418;28;20042;-81
2021/07/31 11:03:48;;;;;;;4.47;2.78;;;;;;;;;;5001976;28;20042;-82
2021/07/31 11:06:16;;;;;;;3.97;2.42;;;;;;;;;;5004326;28;20074;-81
2021/07/31 11:09:13;;;;;;;6.43;2.58;;;;;;;;;;4994625;28;20129;-81
2021/07/31 11:11:40;;;;;;;6.70;2.55;;;;;;;;;;4963117;28;20046;-81
2021/07/31 11:14:08;;;;;;;4.50;2.42;;;;;;;;;;5001805;28;20061;-81
2021/07/31 11:16:35;;;;;;;4.35;2.50;;;;;;;;;;4997962;28;20822;-81
2021/07/31 11:19:02;;;;;;;3.70;2.38;;;;;;;;;;4992407;28;20082;-82
2021/07/31 11:21:30;;;;;;;5.28;2.40;;;;;;;;;;4995432;28;20079;-82
2021/07/31 11:23:59;;;;;;;5.85;2.30;;;;;;;;;;4994811;28;20057;-80
2021/07/31 11:26:44;;;;;;;4.57;2.40;;;;;;;;;;4999498;28;20049;-82
2021/07/31 11:29:17;;;;;;;5.05;2.33;;;;;;;;;;4994831;28;20349;-81
2021/07/31 11:31:45;;;;;;;6.30;2.28;;;;;;;;;;4997044;28;20476;-83
2021/07/31 11:34:13;;;;;;;6.50;2.50;;;;;;;;;;4996141;28;20058;-82
2021/07/31 11:36:41;;;;;;;6.45;2.28;;;;;;;;;;5000888;28;20509;-81
2021/07/31 11:39:09;;;;;;;6.28;2.53;;;;;;;;;;4999419;28;20049;-81
2021/07/31 11:41:40;;;;;;;5.78;2.55;;;;;;;;;;4995182;28;20054;-82
2021/07/31 11:44:08;;;;;;;7.10;3.15;;;;;;;;;;4996677;28;20085;-82
2021/07/31 11:46:42;;;;;;;7.65;2.40;;;;;;;;;;5001937;28;20058;-81
2021/07/31 11:49:10;;;;;;;4.93;2.03;;;;;;;;;;4993789;28;20047;-82
2021/07/31 11:51:44;;;;;;;6.20;2.67;;;;;;;;;;4992226;28;20038;-81
2021/07/31 11:54:10;;;;;;;6.45;2.15;;;;;;;;;;4996855;28;20047;-81
2021/07/31 11:56:38;;;;;;;5.93;2.20;;;;;;;;;;4992278;28;20053;-81
2021/07/31 11:59:06;;;;;;;4.65;2.88;;;;;;;;;;4997106;28;20042;-81
2021/07/31 12:01:33;;;;;;;5.15;2.38;;;;;;;;;;4995436;28;20502;-83
2021/07/31 12:04:01;;;;;;;6.53;2.03;;;;;;;;;;4991687;28;20046;-83
2021/07/31 12:06:41;;;;;;;5.53;2.10;;;;;;;;;;4987770;28;20134;-82
2021/07/31 12:09:20;;;;;;;6.93;2.20;;;;;;;;;;4987625;28;20042;-81
2021/07/31 12:11:47;;;;;;;4.65;1.90;;;;;;;;;;4998495;28;20479;-81
2021/07/31 12:14:39;;;;;;;4.18;2.28;;;;;;;;;;4999379;28;20054;-82
2021/07/31 12:17:21;;;;;;;6.47;3.22;;;;;;;;;;4995472;28;20047;-82
2021/07/31 12:19:51;;;;;;;5.05;2.10;;;;;;;;;;4992200;28;20043;-82
2021/07/31 12:22:18;;;;;;;3.78;1.80;;;;;;;;;;5002438;28;20053;-82
2021/07/31 12:24:47;;;;;;;5.82;2.55;;;;;;;;;;5000945;28;20042;-82
2021/07/31 12:27:14;;;;;;;9.55;2.60;;;;;;;;;;5000043;28;20070;-84
2021/07/31 12:29:42;;;;;;;13.68;3.20;;;;;;;;;;4990807;28;20043;-83
2021/07/31 12:32:25;;;;;;;9.02;2.42;;;;;;;;;;4995206;28;20045;-84
2021/07/31 12:34:54;;;;;;;10.38;2.55;;;;;;;;;;4995491;28;20050;-85
2021/07/31 12:37:22;;;;;;;8.07;2.60;;;;;;;;;;4991378;28;20051;-83
2021/07/31 12:39:51;;;;;;;11.90;3.42;;;;;;;;;;4994146;28;20586;-82
2021/07/31 12:42:20;;;;;;;10.38;2.80;;;;;;;;;;4997418;28;20055;-84
2021/07/31 12:44:46;;;;;;;8.50;2.70;;;;;;;;;;4996253;28;20054;-82
2021/07/31 12:47:13;;;;;;;9.48;2.60;;;;;;;;;;4988796;28;20046;-82
2021/07/31 12:49:39;;;;;;;10.20;2.47;;;;;;;;;;4988956;28;20042;-83
2021/07/31 12:52:07;;;;;;;10.20;2.60;;;;;;;;;;4995599;28;20056;-82
2021/07/31 12:54:34;;;;;;;13.07;3.25;;;;;;;;;;4998660;28;20406;-83
2021/07/31 12:57:01;;;;;;;11.70;2.85;;;;;;;;;;4992295;28;20062;-83
2021/07/31 12:59:27;;;;;;;9.68;2.80;;;;;;;;;;4991124;28;20050;-84
2021/07/31 13:01:53;;;;;;;9.68;2.72;;;;;;;;;;4980626;28;20051;-82
2021/07/31 13:04:20;;;;;;;5.10;2.47;;;;;;;;;;4997226;28;20052;-81
2021/07/31 13:06:46;;;;;;;13.65;2.70;;;;;;;;;;4999563;28;20046;-82
2021/07/31 13:09:14;;;;;;;65.65;5.90;;;;;;;;;;4986568;28;20065;-83
2021/07/31 13:11:41;;;;;;;5.00;2.70;;;;;;;;;;4985864;28;20047;-83
2021/07/31 13:14:07;;;;;;;31.02;4.03;;;;;;;;;;4992845;28;20049;-84
2021/07/31 13:16:34;;;;;;;17.65;3.30;;;;;;;;;;4988449;28;20162;-83
2021/07/31 13:19:00;;;;;;;6.00;2.17;;;;;;;;;;4991324;28;20066;-82
2021/07/31 13:21:27;;;;;;;6.43;2.97;;;;;;;;;;4994824;28;20050;-83
2021/07/31 13:23:53;;;;;;;19.17;3.15;;;;;;;;;;4989068;28;20053;-81
2021/07/31 13:26:22;;;;;;;7.03;2.70;;;;;;;;;;4991859;28;20055;-82
2021/07/31 13:28:49;;;;;;;18.35;4.00;;;;;;;;;;4996520;28;20049;-83
2021/07/31 13:31:15;;;;;;;23.40;4.03;;;;;;;;;;4993042;28;20403;-83
2021/07/31 13:33:41;;;;;;;5.25;2.47;;;;;;;;;;4993745;28;20046;-84
2021/07/31 13:36:08;;;;;;;3.60;2.60;;;;;;;;;;4995122;28;20054;-84
2021/07/31 13:38:36;;;;;;;4.40;2.35;;;;;;;;;;4994616;28;20137;-82
2021/07/31 13:41:03;;;;;;;3.75;2.03;;;;;;;;;;4995809;28;20046;-83
2021/07/31 13:43:37;;;;;;;6.25;2.10;;;;;;;;;;4961593;28;20050;-82
2021/07/31 13:46:06;;;;;;;3.25;2.20;;;;;;;;;;4994983;28;20047;-82
2021/07/31 13:48:32;;;;;;;3.65;2.05;;;;;;;;;;4995136;28;20046;-83
2021/07/31 13:50:59;;;;;;;7.15;3.35;;;;;;;;;;4990666;28;20043;-83
2021/07/31 13:53:25;;;;;;;4.28;2.13;;;;;;;;;;4990562;28;20054;-84
2021/07/31 13:55:52;;;;;;;7.00;2.17;;;;;;;;;;4975443;28;20050;-82
2021/07/31 13:58:18;;;;;;;7.40;2.60;;;;;;;;;;4992991;28;20116;-84
2021/07/31 14:00:46;;;;;;;10.60;2.60;;;;;;;;;;4995180;28;20531;-83
2021/07/31 14:03:14;;;;;;;13.13;2.70;;;;;;;;;;4992720;28;20046;-83
2021/07/31 14:05:40;;;;;;;10.55;3.22;;;;;;;;;;4989121;28;20046;-84
2021/07/31 14:08:07;;;;;;;10.65;2.90;;;;;;;;;;4989747;28;20047;-84
2021/07/31 14:10:34;;;;;;;9.50;3.17;;;;;;;;;;4999608;28;20507;-83
2021/07/31 14:13:00;;;;;;;6.50;2.80;;;;;;;;;;5000390;28;20049;-83
2021/07/31 14:15:27;;;;;;;5.32;3.10;;;;;;;;;;4994788;28;20070;-83
2021/07/31 14:17:54;;;;;;;11.57;3.55;;;;;;;;;;4996565;28;20394;-83
2021/07/31 14:20:21;;;;;;;9.50;3.08;;;;;;;;;;4998402;28;20125;-83
2021/07/31 14:22:49;;;;;;;10.45;2.83;;;;;;;;;;4988204;28;20050;-82
2021/07/31 14:25:15;;;;;;;9.45;2.75;;;;;;;;;;4994475;28;20069;-84
2021/07/31 14:27:42;;;;;;;9.77;2.60;;;;;;;;;;4997601;28;20057;-82
2021/07/31 14:30:09;;;;;;;5.80;2.65;;;;;;;;;;4993849;28;20046;-83
2021/07/31 14:32:35;;;;;;;6.03;2.17;;;;;;;;;;5001418;28;20093;-83
2021/07/31 14:35:04;;;;;;;7.30;2.35;;;;;;;;;;4995639;28;20054;-84
2021/07/31 14:37:31;;;;;;;6.43;2.38;;;;;;;;;;4995864;28;20042;-84
2021/07/31 14:39:57;;;;;;;4.85;2.03;;;;;;;;;;4997680;28;20050;-82
2021/07/31 14:42:24;;;;;;;5.65;2.42;;;;;;;;;;4998077;28;20053;-83
2021/07/31 14:44:52;;;;;;;6.57;2.22;;;;;;;;;;4997690;28;20045;-83
2021/07/31 14:47:18;;;;;;;7.00;2.58;;;;;;;;;;4992869;28;20046;-83